sensor_id;sensor_type;location;lat;lon;timestamp;P1;durP1;ratioP1;P2;durP2;ratioP2
17631;SDS011;8934;51.194;17.150;2023-04-15T00:00:31;21.33;;;12.38;;
17631;SDS011;8934;51.194;17.150;2023-04-15T00:03:18;19.92;;;12.13;;
17631;SDS011;8934;51.194;17.150;2023-04-15T00:06:08;18.52;;;12.88;;
17631;SDS011;8934;51.194;17.150;2023-04-15T00:08:55;22.33;;;12.90;;
17631;SDS011;8934;51.194;17.150;2023-04-15T00:11:44;18.65;;;12.00;;
17631;SDS011;8934;51.194;17.150;2023-04-15T00:14:32;20.98;;;12.95;;
17631;SDS011;8934;51.194;17.150;2023-04-15T00:17:20;18.05;;;12.65;;
17631;SDS011;8934;51.194;17.150;2023-04-15T00:20:08;21.33;;;13.82;;
17631;SDS011;8934;51.194;17.150;2023-04-15T00:22:57;19.88;;;12.93;;
17631;SDS011;8934;51.194;17.150;2023-04-15T00:25:45;18.30;;;12.63;;
17631;SDS011;8934;51.194;17.150;2023-04-15T00:28:33;18.67;;;11.90;;
17631;SDS011;8934;51.194;17.150;2023-04-15T00:31:21;18.60;;;12.48;;
17631;SDS011;8934;51.194;17.150;2023-04-15T00:34:09;17.90;;;10.63;;
17631;SDS011;8934;51.194;17.150;2023-04-15T00:36:56;18.17;;;12.15;;
17631;SDS011;8934;51.194;17.150;2023-04-15T00:39:46;18.30;;;12.07;;
17631;SDS011;8934;51.194;17.150;2023-04-15T00:42:33;17.88;;;12.18;;
17631;SDS011;8934;51.194;17.150;2023-04-15T00:45:22;21.20;;;13.13;;
17631;SDS011;8934;51.194;17.150;2023-04-15T00:48:10;17.98;;;12.18;;
17631;SDS011;8934;51.194;17.150;2023-04-15T00:50:58;19.75;;;12.75;;
17631;SDS011;8934;51.194;17.150;2023-04-15T00:53:47;18.83;;;12.32;;
17631;SDS011;8934;51.194;17.150;2023-04-15T00:56:36;21.38;;;13.32;;
17631;SDS011;8934;51.194;17.150;2023-04-15T00:59:24;24.13;;;14.10;;
17631;SDS011;8934;51.194;17.150;2023-04-15T01:02:13;20.30;;;13.02;;
17631;SDS011;8934;51.194;17.150;2023-04-15T01:05:01;21.15;;;13.43;;
17631;SDS011;8934;51.194;17.150;2023-04-15T01:07:49;20.15;;;12.82;;
17631;SDS011;8934;51.194;17.150;2023-04-15T01:10:38;19.42;;;12.70;;
17631;SDS011;8934;51.194;17.150;2023-04-15T01:13:27;21.70;;;12.45;;
17631;SDS011;8934;51.194;17.150;2023-04-15T01:16:15;17.25;;;12.50;;
17631;SDS011;8934;51.194;17.150;2023-04-15T01:19:02;19.75;;;11.95;;
17631;SDS011;8934;51.194;17.150;2023-04-15T01:21:50;22.67;;;13.40;;
17631;SDS011;8934;51.194;17.150;2023-04-15T01:24:38;18.80;;;12.82;;
17631;SDS011;8934;51.194;17.150;2023-04-15T01:27:27;19.10;;;13.25;;
17631;SDS011;8934;51.194;17.150;2023-04-15T01:30:15;19.35;;;13.02;;
17631;SDS011;8934;51.194;17.150;2023-04-15T01:33:04;17.50;;;12.32;;
17631;SDS011;8934;51.194;17.150;2023-04-15T01:35:52;18.58;;;12.88;;
17631;SDS011;8934;51.194;17.150;2023-04-15T01:38:43;18.45;;;12.98;;
17631;SDS011;8934;51.194;17.150;2023-04-15T01:41:32;19.27;;;11.90;;
17631;SDS011;8934;51.194;17.150;2023-04-15T01:44:21;20.10;;;12.25;;
17631;SDS011;8934;51.194;17.150;2023-04-15T01:47:09;17.45;;;12.07;;
17631;SDS011;8934;51.194;17.150;2023-04-15T01:49:57;16.45;;;11.77;;
17631;SDS011;8934;51.194;17.150;2023-04-15T01:52:46;18.58;;;12.15;;
17631;SDS011;8934;51.194;17.150;2023-04-15T01:55:34;19.33;;;12.07;;
17631;SDS011;8934;51.194;17.150;2023-04-15T01:58:22;18.77;;;12.65;;
17631;SDS011;8934;51.194;17.150;2023-04-15T02:01:11;19.92;;;12.23;;
17631;SDS011;8934;51.194;17.150;2023-04-15T02:03:59;21.35;;;11.85;;
17631;SDS011;8934;51.194;17.150;2023-04-15T02:06:49;16.88;;;12.18;;
17631;SDS011;8934;51.194;17.150;2023-04-15T02:09:39;20.52;;;12.93;;
17631;SDS011;8934;51.194;17.150;2023-04-15T02:12:28;20.13;;;12.55;;
17631;SDS011;8934;51.194;17.150;2023-04-15T02:15:15;20.02;;;12.77;;
17631;SDS011;8934;51.194;17.150;2023-04-15T02:18:04;18.05;;;13.32;;
17631;SDS011;8934;51.194;17.150;2023-04-15T02:20:54;20.55;;;14.25;;
17631;SDS011;8934;51.194;17.150;2023-04-15T02:23:43;18.85;;;13.27;;
17631;SDS011;8934;51.194;17.150;2023-04-15T02:26:33;19.38;;;13.65;;
17631;SDS011;8934;51.194;17.150;2023-04-15T02:29:20;22.85;;;13.57;;
17631;SDS011;8934;51.194;17.150;2023-04-15T02:32:09;17.48;;;12.15;;
17631;SDS011;8934;51.194;17.150;2023-04-15T02:35:02;21.13;;;12.80;;
17631;SDS011;8934;51.194;17.150;2023-04-15T02:37:50;16.48;;;11.07;;
17631;SDS011;8934;51.194;17.150;2023-04-15T02:40:38;18.83;;;11.40;;
17631;SDS011;8934;51.194;17.150;2023-04-15T02:43:26;17.52;;;11.48;;
17631;SDS011;8934;51.194;17.150;2023-04-15T02:46:13;17.67;;;12.20;;
17631;SDS011;8934;51.194;17.150;2023-04-15T02:49:02;16.95;;;11.68;;
17631;SDS011;8934;51.194;17.150;2023-04-15T02:51:51;19.52;;;11.95;;
17631;SDS011;8934;51.194;17.150;2023-04-15T02:54:38;17.33;;;11.30;;
17631;SDS011;8934;51.194;17.150;2023-04-15T02:57:26;19.35;;;12.07;;
17631;SDS011;8934;51.194;17.150;2023-04-15T03:00:16;16.75;;;10.65;;
17631;SDS011;8934;51.194;17.150;2023-04-15T03:03:05;17.90;;;12.10;;
17631;SDS011;8934;51.194;17.150;2023-04-15T03:05:53;16.98;;;11.80;;
17631;SDS011;8934;51.194;17.150;2023-04-15T03:08:42;17.58;;;11.73;;
17631;SDS011;8934;51.194;17.150;2023-04-15T03:11:31;18.08;;;11.77;;
17631;SDS011;8934;51.194;17.150;2023-04-15T03:14:21;19.02;;;12.43;;
17631;SDS011;8934;51.194;17.150;2023-04-15T03:17:09;21.17;;;14.05;;
17631;SDS011;8934;51.194;17.150;2023-04-15T03:19:56;22.15;;;13.93;;
17631;SDS011;8934;51.194;17.150;2023-04-15T03:22:44;21.50;;;13.85;;
17631;SDS011;8934;51.194;17.150;2023-04-15T03:25:34;23.63;;;15.18;;
17631;SDS011;8934;51.194;17.150;2023-04-15T03:28:24;23.77;;;14.55;;
17631;SDS011;8934;51.194;17.150;2023-04-15T03:31:13;21.13;;;13.73;;
17631;SDS011;8934;51.194;17.150;2023-04-15T03:34:00;22.05;;;14.18;;
17631;SDS011;8934;51.194;17.150;2023-04-15T03:36:48;23.40;;;13.15;;
17631;SDS011;8934;51.194;17.150;2023-04-15T03:39:36;21.73;;;13.73;;
17631;SDS011;8934;51.194;17.150;2023-04-15T03:42:25;25.40;;;13.63;;
17631;SDS011;8934;51.194;17.150;2023-04-15T03:45:13;24.08;;;14.60;;
17631;SDS011;8934;51.194;17.150;2023-04-15T03:48:01;23.27;;;13.05;;
17631;SDS011;8934;51.194;17.150;2023-04-15T03:51:02;20.27;;;12.43;;
17631;SDS011;8934;51.194;17.150;2023-04-15T03:53:49;20.25;;;12.23;;
17631;SDS011;8934;51.194;17.150;2023-04-15T03:56:37;17.45;;;11.10;;
17631;SDS011;8934;51.194;17.150;2023-04-15T03:59:26;16.27;;;9.63;;
17631;SDS011;8934;51.194;17.150;2023-04-15T04:02:14;16.15;;;10.68;;
17631;SDS011;8934;51.194;17.150;2023-04-15T04:05:02;14.57;;;9.75;;
17631;SDS011;8934;51.194;17.150;2023-04-15T04:07:50;15.52;;;10.18;;
17631;SDS011;8934;51.194;17.150;2023-04-15T04:10:37;20.17;;;10.23;;
17631;SDS011;8934;51.194;17.150;2023-04-15T04:13:25;13.73;;;9.00;;
17631;SDS011;8934;51.194;17.150;2023-04-15T04:16:14;14.88;;;9.18;;
17631;SDS011;8934;51.194;17.150;2023-04-15T04:19:01;13.68;;;8.13;;
17631;SDS011;8934;51.194;17.150;2023-04-15T04:21:49;14.25;;;8.80;;
17631;SDS011;8934;51.194;17.150;2023-04-15T04:24:37;14.85;;;8.02;;
17631;SDS011;8934;51.194;17.150;2023-04-15T04:27:25;10.82;;;6.85;;
17631;SDS011;8934;51.194;17.150;2023-04-15T04:30:12;9.48;;;5.63;;
17631;SDS011;8934;51.194;17.150;2023-04-15T04:33:01;8.35;;;5.00;;
17631;SDS011;8934;51.194;17.150;2023-04-15T04:35:49;6.65;;;4.35;;
17631;SDS011;8934;51.194;17.150;2023-04-15T04:38:37;5.55;;;3.53;;
17631;SDS011;8934;51.194;17.150;2023-04-15T04:41:24;5.63;;;3.00;;
17631;SDS011;8934;51.194;17.150;2023-04-15T04:44:12;4.65;;;2.70;;
17631;SDS011;8934;51.194;17.150;2023-04-15T04:46:59;3.60;;;2.47;;
17631;SDS011;8934;51.194;17.150;2023-04-15T04:49:48;3.67;;;2.65;;
17631;SDS011;8934;51.194;17.150;2023-04-15T04:52:35;3.13;;;2.28;;
17631;SDS011;8934;51.194;17.150;2023-04-15T04:55:23;3.05;;;2.53;;
17631;SDS011;8934;51.194;17.150;2023-04-15T04:58:10;4.18;;;2.80;;
17631;SDS011;8934;51.194;17.150;2023-04-15T05:00:58;3.28;;;2.17;;
17631;SDS011;8934;51.194;17.150;2023-04-15T05:03:46;4.18;;;2.30;;
17631;SDS011;8934;51.194;17.150;2023-04-15T05:06:35;2.45;;;1.88;;
17631;SDS011;8934;51.194;17.150;2023-04-15T05:09:22;1.98;;;1.75;;
17631;SDS011;8934;51.194;17.150;2023-04-15T05:12:10;2.92;;;1.80;;
17631;SDS011;8934;51.194;17.150;2023-04-15T05:14:59;2.33;;;1.77;;
17631;SDS011;8934;51.194;17.150;2023-04-15T05:17:47;1.90;;;1.50;;
17631;SDS011;8934;51.194;17.150;2023-04-15T05:20:34;3.03;;;1.35;;
17631;SDS011;8934;51.194;17.150;2023-04-15T05:23:23;2.63;;;1.85;;
17631;SDS011;8934;51.194;17.150;2023-04-15T05:26:10;1.92;;;1.52;;
17631;SDS011;8934;51.194;17.150;2023-04-15T05:28:58;3.65;;;1.48;;
17631;SDS011;8934;51.194;17.150;2023-04-15T05:31:47;2.67;;;1.70;;
17631;SDS011;8934;51.194;17.150;2023-04-15T05:34:34;2.88;;;1.85;;
17631;SDS011;8934;51.194;17.150;2023-04-15T05:37:22;3.05;;;1.90;;
17631;SDS011;8934;51.194;17.150;2023-04-15T05:40:11;2.80;;;1.83;;
17631;SDS011;8934;51.194;17.150;2023-04-15T05:42:58;2.03;;;1.48;;
17631;SDS011;8934;51.194;17.150;2023-04-15T05:45:46;2.47;;;1.80;;
17631;SDS011;8934;51.194;17.150;2023-04-15T05:48:34;3.40;;;1.98;;
17631;SDS011;8934;51.194;17.150;2023-04-15T05:51:21;2.78;;;1.63;;
17631;SDS011;8934;51.194;17.150;2023-04-15T05:54:09;2.38;;;2.00;;
17631;SDS011;8934;51.194;17.150;2023-04-15T05:56:58;2.55;;;1.90;;
17631;SDS011;8934;51.194;17.150;2023-04-15T05:59:46;3.33;;;2.13;;
17631;SDS011;8934;51.194;17.150;2023-04-15T06:02:34;2.70;;;1.83;;
17631;SDS011;8934;51.194;17.150;2023-04-15T06:05:21;3.58;;;2.15;;
17631;SDS011;8934;51.194;17.150;2023-04-15T06:08:09;2.78;;;2.10;;
17631;SDS011;8934;51.194;17.150;2023-04-15T06:10:57;3.17;;;1.70;;
17631;SDS011;8934;51.194;17.150;2023-04-15T06:13:46;3.05;;;1.75;;
17631;SDS011;8934;51.194;17.150;2023-04-15T06:16:34;2.45;;;1.83;;
17631;SDS011;8934;51.194;17.150;2023-04-15T06:19:22;3.25;;;1.90;;
17631;SDS011;8934;51.194;17.150;2023-04-15T06:22:10;2.53;;;1.55;;
17631;SDS011;8934;51.194;17.150;2023-04-15T06:24:58;2.03;;;1.50;;
17631;SDS011;8934;51.194;17.150;2023-04-15T06:27:46;1.55;;;1.30;;
17631;SDS011;8934;51.194;17.150;2023-04-15T06:30:35;2.70;;;1.50;;
17631;SDS011;8934;51.194;17.150;2023-04-15T06:33:23;3.15;;;1.45;;
17631;SDS011;8934;51.194;17.150;2023-04-15T06:36:11;2.50;;;1.35;;
17631;SDS011;8934;51.194;17.150;2023-04-15T06:38:58;2.10;;;1.63;;
17631;SDS011;8934;51.194;17.150;2023-04-15T06:41:47;1.75;;;1.33;;
17631;SDS011;8934;51.194;17.150;2023-04-15T06:44:39;1.45;;;1.33;;
17631;SDS011;8934;51.194;17.150;2023-04-15T06:47:27;1.45;;;1.30;;
17631;SDS011;8934;51.194;17.150;2023-04-15T06:50:15;1.90;;;1.27;;
17631;SDS011;8934;51.194;17.150;2023-04-15T06:53:03;1.73;;;1.38;;
17631;SDS011;8934;51.194;17.150;2023-04-15T06:55:51;1.10;;;0.95;;
17631;SDS011;8934;51.194;17.150;2023-04-15T06:58:38;2.05;;;1.40;;
17631;SDS011;8934;51.194;17.150;2023-04-15T07:01:26;2.17;;;1.40;;
17631;SDS011;8934;51.194;17.150;2023-04-15T07:04:15;2.03;;;1.70;;
17631;SDS011;8934;51.194;17.150;2023-04-15T07:07:03;4.35;;;1.80;;
17631;SDS011;8934;51.194;17.150;2023-04-15T07:09:50;2.63;;;1.65;;
17631;SDS011;8934;51.194;17.150;2023-04-15T07:12:38;2.83;;;2.15;;
17631;SDS011;8934;51.194;17.150;2023-04-15T07:15:26;1.90;;;1.63;;
17631;SDS011;8934;51.194;17.150;2023-04-15T07:18:13;3.10;;;1.88;;
17631;SDS011;8934;51.194;17.150;2023-04-15T07:21:02;3.55;;;2.35;;
17631;SDS011;8934;51.194;17.150;2023-04-15T07:23:50;3.55;;;2.40;;
17631;SDS011;8934;51.194;17.150;2023-04-15T07:26:38;2.72;;;1.67;;
17631;SDS011;8934;51.194;17.150;2023-04-15T07:29:25;2.10;;;1.70;;
17631;SDS011;8934;51.194;17.150;2023-04-15T07:32:13;2.30;;;1.60;;
17631;SDS011;8934;51.194;17.150;2023-04-15T07:35:00;1.98;;;1.70;;
17631;SDS011;8934;51.194;17.150;2023-04-15T07:37:49;1.55;;;1.30;;
17631;SDS011;8934;51.194;17.150;2023-04-15T07:40:37;1.90;;;1.50;;
17631;SDS011;8934;51.194;17.150;2023-04-15T07:43:24;1.70;;;1.17;;
17631;SDS011;8934;51.194;17.150;2023-04-15T07:46:12;1.83;;;1.40;;
17631;SDS011;8934;51.194;17.150;2023-04-15T07:49:01;2.03;;;1.10;;
17631;SDS011;8934;51.194;17.150;2023-04-15T07:51:48;1.83;;;1.38;;
17631;SDS011;8934;51.194;17.150;2023-04-15T07:54:37;2.50;;;1.35;;
17631;SDS011;8934;51.194;17.150;2023-04-15T07:57:25;1.40;;;1.30;;
17631;SDS011;8934;51.194;17.150;2023-04-15T08:00:13;1.50;;;1.20;;
17631;SDS011;8934;51.194;17.150;2023-04-15T08:03:01;3.13;;;1.42;;
17631;SDS011;8934;51.194;17.150;2023-04-15T08:05:49;2.45;;;1.45;;
17631;SDS011;8934;51.194;17.150;2023-04-15T08:08:37;2.17;;;1.40;;
17631;SDS011;8934;51.194;17.150;2023-04-15T08:11:26;1.80;;;1.33;;
17631;SDS011;8934;51.194;17.150;2023-04-15T08:14:13;2.05;;;1.20;;
17631;SDS011;8934;51.194;17.150;2023-04-15T08:17:01;2.90;;;1.23;;
17631;SDS011;8934;51.194;17.150;2023-04-15T08:19:49;1.50;;;1.27;;
17631;SDS011;8934;51.194;17.150;2023-04-15T08:22:36;2.30;;;1.17;;
17631;SDS011;8934;51.194;17.150;2023-04-15T08:25:23;1.30;;;1.17;;
17631;SDS011;8934;51.194;17.150;2023-04-15T08:28:13;1.27;;;0.88;;
17631;SDS011;8934;51.194;17.150;2023-04-15T08:31:02;2.42;;;0.82;;
17631;SDS011;8934;51.194;17.150;2023-04-15T08:33:49;2.20;;;0.93;;
17631;SDS011;8934;51.194;17.150;2023-04-15T08:36:38;1.45;;;1.13;;
17631;SDS011;8934;51.194;17.150;2023-04-15T08:39:25;1.52;;;1.10;;
17631;SDS011;8934;51.194;17.150;2023-04-15T08:42:15;1.88;;;1.10;;
17631;SDS011;8934;51.194;17.150;2023-04-15T08:45:06;1.45;;;1.00;;
17631;SDS011;8934;51.194;17.150;2023-04-15T08:47:56;1.85;;;0.90;;
17631;SDS011;8934;51.194;17.150;2023-04-15T08:50:45;1.27;;;0.88;;
17631;SDS011;8934;51.194;17.150;2023-04-15T08:53:33;2.58;;;1.17;;
17631;SDS011;8934;51.194;17.150;2023-04-15T08:56:23;1.65;;;1.30;;
17631;SDS011;8934;51.194;17.150;2023-04-15T08:59:12;1.65;;;1.00;;
17631;SDS011;8934;51.194;17.150;2023-04-15T09:02:03;2.10;;;1.60;;
17631;SDS011;8934;51.194;17.150;2023-04-15T09:04:51;1.20;;;1.05;;
17631;SDS011;8934;51.194;17.150;2023-04-15T09:07:39;1.20;;;1.10;;
17631;SDS011;8934;51.194;17.150;2023-04-15T09:10:27;1.15;;;1.05;;
17631;SDS011;8934;51.194;17.150;2023-04-15T09:13:14;2.13;;;1.33;;
17631;SDS011;8934;51.194;17.150;2023-04-15T09:16:02;1.77;;;0.90;;
17631;SDS011;8934;51.194;17.150;2023-04-15T09:18:56;1.60;;;0.75;;
17631;SDS011;8934;51.194;17.150;2023-04-15T09:21:46;1.98;;;1.00;;
17631;SDS011;8934;51.194;17.150;2023-04-15T09:24:35;1.25;;;1.15;;
17631;SDS011;8934;51.194;17.150;2023-04-15T09:27:24;1.30;;;0.50;;
17631;SDS011;8934;51.194;17.150;2023-04-15T09:30:12;0.90;;;0.70;;
17631;SDS011;8934;51.194;17.150;2023-04-15T09:33:00;1.67;;;0.73;;
17631;SDS011;8934;51.194;17.150;2023-04-15T09:35:58;1.30;;;0.60;;
17631;SDS011;8934;51.194;17.150;2023-04-15T09:38:53;1.83;;;0.70;;
17631;SDS011;8934;51.194;17.150;2023-04-15T09:41:41;0.52;;;0.47;;
17631;SDS011;8934;51.194;17.150;2023-04-15T09:44:30;1.00;;;0.45;;
17631;SDS011;8934;51.194;17.150;2023-04-15T09:47:27;0.60;;;0.55;;
17631;SDS011;8934;51.194;17.150;2023-04-15T09:50:16;0.73;;;0.55;;
17631;SDS011;8934;51.194;17.150;2023-04-15T09:53:07;0.80;;;0.50;;
17631;SDS011;8934;51.194;17.150;2023-04-15T09:55:57;0.75;;;0.50;;
17631;SDS011;8934;51.194;17.150;2023-04-15T09:58:47;0.70;;;0.52;;
17631;SDS011;8934;51.194;17.150;2023-04-15T10:01:43;0.35;;;0.30;;
17631;SDS011;8934;51.194;17.150;2023-04-15T10:04:32;1.63;;;0.45;;
17631;SDS011;8934;51.194;17.150;2023-04-15T10:07:22;0.40;;;0.30;;
17631;SDS011;8934;51.194;17.150;2023-04-15T10:10:13;0.50;;;0.32;;
17631;SDS011;8934;51.194;17.150;2023-04-15T10:13:01;0.68;;;0.40;;
17631;SDS011;8934;51.194;17.150;2023-04-15T10:15:50;0.52;;;0.40;;
17631;SDS011;8934;51.194;17.150;2023-04-15T10:18:45;0.43;;;0.30;;
17631;SDS011;8934;51.194;17.150;2023-04-15T10:21:34;0.40;;;0.38;;
17631;SDS011;8934;51.194;17.150;2023-04-15T10:24:23;0.75;;;0.60;;
17631;SDS011;8934;51.194;17.150;2023-04-15T10:27:13;1.13;;;0.50;;
17631;SDS011;8934;51.194;17.150;2023-04-15T10:30:03;0.60;;;0.45;;
17631;SDS011;8934;51.194;17.150;2023-04-15T10:32:52;0.73;;;0.40;;
17631;SDS011;8934;51.194;17.150;2023-04-15T10:35:44;1.38;;;0.40;;
17631;SDS011;8934;51.194;17.150;2023-04-15T10:38:34;0.98;;;0.40;;
17631;SDS011;8934;51.194;17.150;2023-04-15T10:41:23;0.50;;;0.25;;
17631;SDS011;8934;51.194;17.150;2023-04-15T10:44:14;0.47;;;0.40;;
17631;SDS011;8934;51.194;17.150;2023-04-15T10:47:03;0.38;;;0.30;;
17631;SDS011;8934;51.194;17.150;2023-04-15T10:49:56;0.35;;;0.32;;
17631;SDS011;8934;51.194;17.150;2023-04-15T10:52:45;0.77;;;0.40;;
17631;SDS011;8934;51.194;17.150;2023-04-15T10:55:36;0.85;;;0.52;;
17631;SDS011;8934;51.194;17.150;2023-04-15T10:58:24;0.63;;;0.30;;
17631;SDS011;8934;51.194;17.150;2023-04-15T11:01:13;0.93;;;0.50;;
17631;SDS011;8934;51.194;17.150;2023-04-15T11:04:01;0.22;;;0.22;;
17631;SDS011;8934;51.194;17.150;2023-04-15T11:06:50;0.70;;;0.40;;
17631;SDS011;8934;51.194;17.150;2023-04-15T11:09:51;0.22;;;0.15;;
17631;SDS011;8934;51.194;17.150;2023-04-15T11:12:39;1.23;;;0.40;;
17631;SDS011;8934;51.194;17.150;2023-04-15T11:15:28;1.30;;;0.50;;
17631;SDS011;8934;51.194;17.150;2023-04-15T11:18:19;1.38;;;0.40;;
17631;SDS011;8934;51.194;17.150;2023-04-15T11:21:08;0.88;;;0.57;;
17631;SDS011;8934;51.194;17.150;2023-04-15T11:23:55;0.40;;;0.22;;
17631;SDS011;8934;51.194;17.150;2023-04-15T11:26:43;0.63;;;0.30;;
17631;SDS011;8934;51.194;17.150;2023-04-15T11:29:31;0.45;;;0.45;;
17631;SDS011;8934;51.194;17.150;2023-04-15T11:32:19;0.68;;;0.30;;
17631;SDS011;8934;51.194;17.150;2023-04-15T11:35:09;0.47;;;0.20;;
17631;SDS011;8934;51.194;17.150;2023-04-15T11:37:56;0.95;;;0.50;;
17631;SDS011;8934;51.194;17.150;2023-04-15T11:40:46;2.03;;;1.83;;
17631;SDS011;8934;51.194;17.150;2023-04-15T11:43:33;0.45;;;0.40;;
17631;SDS011;8934;51.194;17.150;2023-04-15T11:46:27;0.85;;;0.73;;
17631;SDS011;8934;51.194;17.150;2023-04-15T11:49:24;0.82;;;0.73;;
17631;SDS011;8934;51.194;17.150;2023-04-15T11:52:15;1.60;;;0.80;;
17631;SDS011;8934;51.194;17.150;2023-04-15T11:55:02;0.50;;;0.30;;
17631;SDS011;8934;51.194;17.150;2023-04-15T11:58:04;1.20;;;0.68;;
17631;SDS011;8934;51.194;17.150;2023-04-15T12:00:53;1.10;;;0.57;;
17631;SDS011;8934;51.194;17.150;2023-04-15T12:03:42;0.57;;;0.40;;
17631;SDS011;8934;51.194;17.150;2023-04-15T12:06:32;0.43;;;0.32;;
17631;SDS011;8934;51.194;17.150;2023-04-15T12:09:22;0.30;;;0.15;;
17631;SDS011;8934;51.194;17.150;2023-04-15T12:12:10;0.30;;;0.30;;
17631;SDS011;8934;51.194;17.150;2023-04-15T12:14:57;0.35;;;0.25;;
17631;SDS011;8934;51.194;17.150;2023-04-15T12:17:45;0.60;;;0.30;;
17631;SDS011;8934;51.194;17.150;2023-04-15T12:20:42;0.77;;;0.40;;
17631;SDS011;8934;51.194;17.150;2023-04-15T12:23:30;0.77;;;0.50;;
17631;SDS011;8934;51.194;17.150;2023-04-15T12:26:27;0.65;;;0.35;;
17631;SDS011;8934;51.194;17.150;2023-04-15T12:29:16;0.85;;;0.52;;
17631;SDS011;8934;51.194;17.150;2023-04-15T12:32:04;1.20;;;0.47;;
17631;SDS011;8934;51.194;17.150;2023-04-15T12:34:53;0.40;;;0.32;;
17631;SDS011;8934;51.194;17.150;2023-04-15T12:37:41;0.40;;;0.40;;
17631;SDS011;8934;51.194;17.150;2023-04-15T12:40:28;0.85;;;0.30;;
17631;SDS011;8934;51.194;17.150;2023-04-15T12:43:17;0.60;;;0.40;;
17631;SDS011;8934;51.194;17.150;2023-04-15T12:46:05;0.63;;;0.40;;
17631;SDS011;8934;51.194;17.150;2023-04-15T12:48:53;0.47;;;0.30;;
17631;SDS011;8934;51.194;17.150;2023-04-15T12:51:41;0.95;;;0.50;;
17631;SDS011;8934;51.194;17.150;2023-04-15T12:54:29;0.50;;;0.32;;
17631;SDS011;8934;51.194;17.150;2023-04-15T12:57:17;0.68;;;0.30;;
17631;SDS011;8934;51.194;17.150;2023-04-15T13:00:06;0.60;;;0.38;;
17631;SDS011;8934;51.194;17.150;2023-04-15T13:02:54;0.43;;;0.30;;
17631;SDS011;8934;51.194;17.150;2023-04-15T13:05:42;0.65;;;0.40;;
17631;SDS011;8934;51.194;17.150;2023-04-15T13:08:29;0.30;;;0.20;;
17631;SDS011;8934;51.194;17.150;2023-04-15T13:11:17;0.90;;;0.40;;
17631;SDS011;8934;51.194;17.150;2023-04-15T13:14:05;0.90;;;0.40;;
17631;SDS011;8934;51.194;17.150;2023-04-15T13:16:55;1.75;;;0.40;;
17631;SDS011;8934;51.194;17.150;2023-04-15T13:19:43;0.30;;;0.30;;
17631;SDS011;8934;51.194;17.150;2023-04-15T13:22:30;0.85;;;0.63;;
17631;SDS011;8934;51.194;17.150;2023-04-15T13:25:18;1.40;;;0.47;;
17631;SDS011;8934;51.194;17.150;2023-04-15T13:28:06;0.50;;;0.50;;
17631;SDS011;8934;51.194;17.150;2023-04-15T13:30:54;1.10;;;0.40;;
17631;SDS011;8934;51.194;17.150;2023-04-15T13:33:42;0.93;;;0.50;;
17631;SDS011;8934;51.194;17.150;2023-04-15T13:36:30;0.85;;;0.52;;
17631;SDS011;8934;51.194;17.150;2023-04-15T13:39:17;1.75;;;0.73;;
17631;SDS011;8934;51.194;17.150;2023-04-15T13:42:05;0.90;;;0.40;;
17631;SDS011;8934;51.194;17.150;2023-04-15T13:44:53;1.75;;;0.60;;
17631;SDS011;8934;51.194;17.150;2023-04-15T13:47:40;1.70;;;0.50;;
17631;SDS011;8934;51.194;17.150;2023-04-15T13:50:30;0.65;;;0.60;;
17631;SDS011;8934;51.194;17.150;2023-04-15T13:53:18;0.50;;;0.30;;
17631;SDS011;8934;51.194;17.150;2023-04-15T13:56:18;0.68;;;0.50;;
17631;SDS011;8934;51.194;17.150;2023-04-15T13:59:06;0.60;;;0.50;;
17631;SDS011;8934;51.194;17.150;2023-04-15T14:01:55;1.52;;;0.90;;
17631;SDS011;8934;51.194;17.150;2023-04-15T14:04:42;0.40;;;0.40;;
17631;SDS011;8934;51.194;17.150;2023-04-15T14:07:31;1.25;;;0.60;;
17631;SDS011;8934;51.194;17.150;2023-04-15T14:10:19;0.77;;;0.50;;
17631;SDS011;8934;51.194;17.150;2023-04-15T14:13:07;0.50;;;0.50;;
17631;SDS011;8934;51.194;17.150;2023-04-15T14:15:55;0.90;;;0.75;;
17631;SDS011;8934;51.194;17.150;2023-04-15T14:18:43;1.30;;;0.60;;
17631;SDS011;8934;51.194;17.150;2023-04-15T14:21:31;1.65;;;0.95;;
17631;SDS011;8934;51.194;17.150;2023-04-15T14:24:20;1.02;;;0.70;;
17631;SDS011;8934;51.194;17.150;2023-04-15T14:27:08;0.70;;;0.60;;
17631;SDS011;8934;51.194;17.150;2023-04-15T14:29:57;0.80;;;0.80;;
17631;SDS011;8934;51.194;17.150;2023-04-15T14:32:45;1.77;;;0.80;;
17631;SDS011;8934;51.194;17.150;2023-04-15T14:35:33;1.05;;;0.75;;
17631;SDS011;8934;51.194;17.150;2023-04-15T14:38:20;1.63;;;0.50;;
17631;SDS011;8934;51.194;17.150;2023-04-15T14:41:10;1.55;;;1.00;;
17631;SDS011;8934;51.194;17.150;2023-04-15T14:43:57;2.10;;;0.70;;
17631;SDS011;8934;51.194;17.150;2023-04-15T14:46:45;1.00;;;0.90;;
17631;SDS011;8934;51.194;17.150;2023-04-15T14:49:33;0.90;;;0.80;;
17631;SDS011;8934;51.194;17.150;2023-04-15T14:52:21;2.08;;;0.80;;
17631;SDS011;8934;51.194;17.150;2023-04-15T14:55:09;1.90;;;1.00;;
17631;SDS011;8934;51.194;17.150;2023-04-15T14:57:59;1.48;;;0.80;;
17631;SDS011;8934;51.194;17.150;2023-04-15T15:00:47;1.00;;;0.90;;
17631;SDS011;8934;51.194;17.150;2023-04-15T15:03:35;1.33;;;0.80;;
17631;SDS011;8934;51.194;17.150;2023-04-15T15:06:23;2.22;;;0.95;;
17631;SDS011;8934;51.194;17.150;2023-04-15T15:09:13;1.38;;;1.00;;
17631;SDS011;8934;51.194;17.150;2023-04-15T15:12:01;1.45;;;1.00;;
17631;SDS011;8934;51.194;17.150;2023-04-15T15:14:50;1.85;;;1.17;;
17631;SDS011;8934;51.194;17.150;2023-04-15T15:17:38;1.13;;;1.02;;
17631;SDS011;8934;51.194;17.150;2023-04-15T15:20:26;1.40;;;1.30;;
17631;SDS011;8934;51.194;17.150;2023-04-15T15:23:17;1.52;;;1.15;;
17631;SDS011;8934;51.194;17.150;2023-04-15T15:26:05;1.30;;;1.00;;
17631;SDS011;8934;51.194;17.150;2023-04-15T15:28:53;1.83;;;1.00;;
17631;SDS011;8934;51.194;17.150;2023-04-15T15:31:42;1.33;;;0.85;;
17631;SDS011;8934;51.194;17.150;2023-04-15T15:34:30;0.90;;;0.80;;
17631;SDS011;8934;51.194;17.150;2023-04-15T15:37:17;1.48;;;0.90;;
17631;SDS011;8934;51.194;17.150;2023-04-15T15:40:06;1.15;;;1.05;;
17631;SDS011;8934;51.194;17.150;2023-04-15T15:42:55;1.05;;;0.90;;
17631;SDS011;8934;51.194;17.150;2023-04-15T15:45:44;2.00;;;1.42;;
17631;SDS011;8934;51.194;17.150;2023-04-15T15:48:33;1.92;;;1.30;;
17631;SDS011;8934;51.194;17.150;2023-04-15T15:51:21;0.82;;;0.60;;
17631;SDS011;8934;51.194;17.150;2023-04-15T15:54:08;0.60;;;0.60;;
17631;SDS011;8934;51.194;17.150;2023-04-15T15:56:56;1.15;;;0.90;;
17631;SDS011;8934;51.194;17.150;2023-04-15T15:59:44;3.90;;;0.80;;
17631;SDS011;8934;51.194;17.150;2023-04-15T16:02:31;2.15;;;1.17;;
17631;SDS011;8934;51.194;17.150;2023-04-15T16:05:26;1.13;;;0.93;;
17631;SDS011;8934;51.194;17.150;2023-04-15T16:08:13;2.05;;;1.40;;
17631;SDS011;8934;51.194;17.150;2023-04-15T16:11:01;1.65;;;1.20;;
17631;SDS011;8934;51.194;17.150;2023-04-15T16:13:49;2.63;;;1.42;;
17631;SDS011;8934;51.194;17.150;2023-04-15T16:16:37;1.58;;;1.38;;
17631;SDS011;8934;51.194;17.150;2023-04-15T16:19:25;1.45;;;1.15;;
17631;SDS011;8934;51.194;17.150;2023-04-15T16:22:14;2.50;;;1.35;;
17631;SDS011;8934;51.194;17.150;2023-04-15T16:25:02;1.33;;;1.02;;
17631;SDS011;8934;51.194;17.150;2023-04-15T16:27:49;1.42;;;1.05;;
17631;SDS011;8934;51.194;17.150;2023-04-15T16:30:50;1.00;;;0.90;;
17631;SDS011;8934;51.194;17.150;2023-04-15T16:33:38;1.73;;;1.08;;
17631;SDS011;8934;51.194;17.150;2023-04-15T16:36:26;1.95;;;1.33;;
17631;SDS011;8934;51.194;17.150;2023-04-15T16:39:15;1.65;;;1.08;;
17631;SDS011;8934;51.194;17.150;2023-04-15T16:42:04;2.17;;;1.20;;
17631;SDS011;8934;51.194;17.150;2023-04-15T16:44:52;1.30;;;1.20;;
17631;SDS011;8934;51.194;17.150;2023-04-15T16:47:41;2.03;;;1.40;;